Terminal Aerodrome Forecast
Issued by NWS

Home | Current Version | Previous Version | Text Only | Print | Product List | Glossary On
Versions: 1 2 3 4 5 6 7 8 9 10 11 12 13 14 15 16 17 18 19 20 21 22 23 24 25 26 27 28 29 30 31 32 33 34 35 36 37 38 39 40 41 42 43 44 45 46 47 48 49 50
017
FTUS45 KBOU 262323
TAFBJC
TAF
KBJC 262323Z 2700/2724 32008KT P6SM SKC
     FM270300 25012KT P6SM SCT220
      TEMPO 2709/2713 25012G20KT
     FM271900 23014G22KT P6SM SCT220=

USA.gov is the U.S. government's official web portal to all federal, state and local government web resources and services.